Marble Falls' Hourly Summary for Friday, July 6, 2018
Hour Temp
(f)
RH
(%)
Solar Rad.
(MJ/m2)
Rainfall
(in)
Wind
(mph)
7/6/2018 12:00 AM 80 76 0 0 0.07
7/6/2018 1:00 AM 80 76 0 0 1.47
7/6/2018 2:00 AM 80 70 0 0 1.55
7/6/2018 3:00 AM 79 75 0 0 1.55
7/6/2018 4:00 AM 79 75 0 0 1.48
7/6/2018 5:00 AM 79 75 0 0 1.48
7/6/2018 6:00 AM 78 71 0 0 1.83
7/6/2018 7:00 AM 77 79 0.17 0 2.37
7/6/2018 8:00 AM 79 79 0.47 0 2.37
7/6/2018 9:00 AM 81 74 1.43 0 1.64
7/6/2018 10:00 AM 82 72 2.16 0 2.34
7/6/2018 11:00 AM 85 70 2.49 0 2.34
7/6/2018 12:00 PM 86 64 2.49 0 3.23
7/6/2018 1:00 PM 90 58 2.69 0 3.23
7/6/2018 2:00 PM 92 45 2.69 0 3.19
7/6/2018 3:00 PM 94 40 2.56 0 3.88
7/6/2018 4:00 PM 94 37 2.56 0 3.88
7/6/2018 5:00 PM 95 34 2.2 0 4.38
7/6/2018 6:00 PM 95 35 1.78 0 4.38
7/6/2018 7:00 PM 94 37 1.25 0 5.13
7/6/2018 8:00 PM 92 51 0.64 0 5.13
7/6/2018 9:00 PM 85 62 0.03 0 2.13
7/6/2018 10:00 PM 82 62 0 0 1.43
7/6/2018 11:00 PM 81 68 0 0 1.72
Data Summary 84 61 25.61 0.00 2.59